Time;durP1;ratioP1;P1;durP2;ratioP2;P2;SDS_P1;SDS_P2;PMS_P1;PMS_P2;Temp;Humidity;BMP_temperature;BMP_pressure;BME280_temperature;BME280_humidity;BME280_pressure;Samples;Min_cycle;Max_cycle;Signal;HPM_P1;HPM_P2
2022/06/20 00:00:06;;;;;;;14.23;3.67;;;;;;;13.56;90.68;101106.94;172733;28;931;-66
2022/06/20 00:00:16;;;;;;;13.81;3.76;;;;;;;13.62;90.37;101104.00;172576;28;1318;-66
2022/06/20 00:00:23;;;;;;;12.34;3.58;;;;;;;13.67;89.99;101106.38;171912;28;1393;-66
2022/06/20 00:00:30;;;;;;;10.92;3.53;;;;;;;13.69;89.98;101104.53;172004;28;997;-67
2022/06/20 00:00:35;;;;;;;10.80;3.57;;;;;;;13.70;89.82;101101.84;172025;28;887;-66
2022/06/20 00:00:41;;;;;;;11.63;3.60;;;;;;;13.72;89.76;101099.13;172006;28;943;-66
2022/06/20 00:00:48;;;;;;;12.54;3.70;;;;;;;13.75;89.75;101104.19;171836;28;1157;-66
2022/06/20 00:00:58;;;;;;;13.98;3.85;;;;;;;13.77;89.27;101107.59;171989;28;1982;-66
2022/06/20 00:01:04;;;;;;;13.94;3.82;;;;;;;13.77;89.17;101108.47;171995;28;1250;-67
2022/06/20 00:01:10;;;;;;;13.23;3.75;;;;;;;13.74;89.41;101102.50;171996;28;1042;-66
2022/06/20 00:01:15;;;;;;;12.40;3.67;;;;;;;13.72;89.78;101104.38;172006;28;940;-66
2022/06/20 00:01:23;;;;;;;12.15;3.67;;;;;;;13.72;89.75;101099.97;172035;28;1085;-66
2022/06/20 00:01:29;;;;;;;10.73;3.50;;;;;;;13.74;89.28;101107.75;172001;28;1074;-66
2022/06/20 00:01:35;;;;;;;10.50;3.50;;;;;;;13.76;89.68;101105.91;172000;28;864;-66
2022/06/20 00:01:40;;;;;;;11.32;3.53;;;;;;;13.77;89.22;101102.38;171986;28;1153;-66
2022/06/20 00:01:46;;;;;;;11.85;3.67;;;;;;;13.75;89.61;101099.81;171991;28;935;-66
2022/06/20 00:01:51;;;;;;;13.03;3.80;;;;;;;13.77;89.34;101102.38;172074;28;1001;-66
2022/06/20 00:01:57;;;;;;;13.88;3.85;;;;;;;13.78;89.43;101106.66;171270;28;1003;-66
2022/06/20 00:02:03;;;;;;;14.60;3.80;;;;;;;13.80;89.46;101101.34;171359;28;828;-66
2022/06/20 00:02:21;;;;;;;14.85;3.75;;;;;;;13.82;89.29;101102.13;171341;28;1058;-66
2022/06/20 00:02:27;;;;;;;13.61;3.63;;;;;;;13.82;89.29;101105.59;172668;28;1243;-66
2022/06/20 00:02:42;;;;;;;12.80;3.83;;;;;;;13.84;89.13;101111.63;172695;28;939;-66
2022/06/20 00:02:52;;;;;;;12.45;3.96;;;;;;;13.75;89.46;101104.19;172661;28;1239;-66
2022/06/20 00:02:59;;;;;;;12.61;3.92;;;;;;;13.58;90.18;101103.31;171880;28;1602;-66
2022/06/20 00:03:09;;;;;;;12.40;3.53;;;;;;;13.47;90.39;101110.81;171918;28;1058;-66
2022/06/20 00:03:25;;;;;;;12.66;3.59;;;;;;;13.24;92.19;101105.00;171975;28;1150;-66
2022/06/20 00:03:41;;;;;;;11.31;3.47;;;;;;;13.19;92.69;101112.22;171416;28;1778;-66
2022/06/20 00:03:48;;;;;;;12.77;3.63;;;;;;;13.21;92.73;101105.13;171976;28;1249;-66
2022/06/20 00:03:54;;;;;;;14.45;3.80;;;;;;;13.29;92.36;101097.75;171377;28;1259;-66
2022/06/20 00:04:00;;;;;;;14.48;3.83;;;;;;;13.34;91.92;101100.13;171970;28;769;-66
2022/06/20 00:04:06;;;;;;;15.13;3.90;;;;;;;13.39;91.52;101098.94;172013;28;1090;-66
2022/06/20 00:04:19;;;;;;;15.23;3.87;;;;;;;13.48;91.39;101102.06;172020;28;1014;-66
2022/06/20 00:04:24;;;;;;;13.91;3.74;;;;;;;13.54;91.06;101107.00;171991;28;1241;-66
2022/06/20 00:04:30;;;;;;;13.73;3.58;;;;;;;13.52;90.58;101107.09;171996;28;1062;-66
2022/06/20 00:04:35;;;;;;;12.97;3.57;;;;;;;13.48;90.77;101109.94;172002;28;915;-66
2022/06/20 00:04:40;;;;;;;13.10;3.67;;;;;;;13.54;90.88;101096.53;172018;28;851;-66
2022/06/20 00:04:49;;;;;;;12.83;3.60;;;;;;;13.54;90.96;101096.53;172019;28;1006;-66
2022/06/20 00:04:55;;;;;;;12.37;3.53;;;;;;;13.36;89.71;101098.28;171200;28;1338;-67
2022/06/20 00:05:04;;;;;;;11.93;3.43;;;;;;;13.22;90.63;101101.59;172000;28;876;-66
2022/06/20 00:05:16;;;;;;;12.07;3.61;;;;;;;13.22;91.04;101101.59;171229;28;1410;-66
2022/06/20 00:05:28;;;;;;;13.43;3.76;;;;;;;13.18;91.53;101100.03;171282;28;1657;-66
2022/06/20 00:05:36;;;;;;;13.19;3.81;;;;;;;13.22;91.66;101098.97;171322;28;1262;-66
2022/06/20 00:05:42;;;;;;;13.85;3.65;;;;;;;13.19;91.99;101106.97;170556;29;1270;-66
2022/06/20 00:05:47;;;;;;;13.17;3.57;;;;;;;13.16;91.99;101096.63;170639;29;1042;-66
2022/06/20 00:05:53;;;;;;;13.02;3.65;;;;;;;13.16;92.81;101101.88;170979;28;896;-66
2022/06/20 00:05:58;;;;;;;13.85;3.78;;;;;;;13.13;92.75;101101.13;171350;28;1018;-66
2022/06/20 00:06:04;;;;;;;13.27;3.70;;;;;;;13.17;92.59;101098.34;171253;28;1310;-66
2022/06/20 00:06:15;;;;;;;13.55;3.70;;;;;;;13.27;91.84;101099.56;171342;28;1039;-66
2022/06/20 00:06:24;;;;;;;12.93;3.58;;;;;;;13.34;91.68;101095.72;171335;28;1258;-66
2022/06/20 00:06:30;;;;;;;13.97;3.50;;;;;;;13.42;91.11;101097.13;171359;28;896;-66
2022/06/20 00:06:38;;;;;;;13.55;3.60;;;;;;;13.42;91.23;101091.88;171344;28;939;-66
2022/06/20 00:06:43;;;;;;;13.17;3.67;;;;;;;13.38;91.24;101094.63;171307;28;963;-66
2022/06/20 00:06:49;;;;;;;14.00;3.77;;;;;;;13.34;92.24;101103.59;171362;28;1006;-66
2022/06/20 00:06:54;;;;;;;13.68;3.60;;;;;;;13.38;91.61;101097.25;171889;28;852;-66
2022/06/20 00:07:00;;;;;;;12.73;3.60;;;;;;;13.42;91.31;101097.13;171986;28;931;-66
2022/06/20 00:07:05;;;;;;;13.25;3.55;;;;;;;13.44;91.27;101097.91;171975;28;919;-66
2022/06/20 00:07:12;;;;;;;13.43;3.50;;;;;;;13.43;91.00;101093.56;172627;28;856;-66
2022/06/20 00:07:18;;;;;;;12.90;3.40;;;;;;;13.48;91.12;101096.81;172678;28;978;-66
2022/06/20 00:07:24;;;;;;;12.07;3.47;;;;;;;13.52;90.52;101098.38;172687;28;934;-66
2022/06/20 00:07:29;;;;;;;11.13;3.33;;;;;;;13.53;90.73;101094.84;172662;28;1109;-66
2022/06/20 00:07:34;;;;;;;10.37;3.27;;;;;;;13.50;90.78;101094.97;172635;28;1538;-66
2022/06/20 00:07:40;;;;;;;10.77;3.37;;;;;;;13.45;90.77;101092.56;172912;28;875;-66
2022/06/20 00:07:46;;;;;;;11.98;3.58;;;;;;;13.49;90.66;101103.78;173341;28;931;-66
2022/06/20 00:07:53;;;;;;;12.65;3.63;;;;;;;13.52;90.67;101098.38;172648;28;1068;-66
2022/06/20 00:07:58;;;;;;;13.97;3.80;;;;;;;13.55;90.56;101098.22;172729;28;958;-66
2022/06/20 00:08:05;;;;;;;15.00;3.77;;;;;;;13.57;90.37;101099.00;172702;28;966;-66
2022/06/20 00:08:11;;;;;;;14.44;3.62;;;;;;;13.57;90.15;101090.28;171966;28;1160;-66
2022/06/20 00:08:17;;;;;;;12.73;3.43;;;;;;;13.57;90.13;101088.50;172042;28;998;-66
2022/06/20 00:08:23;;;;;;;13.27;3.33;;;;;;;13.52;90.33;101093.16;172032;28;907;-67
2022/06/20 00:08:29;;;;;;;13.13;3.37;;;;;;;13.45;90.34;101091.72;172018;28;1074;-66
2022/06/20 00:08:34;;;;;;;12.50;3.63;;;;;;;13.46;90.57;101098.66;172017;28;1125;-66
2022/06/20 00:08:40;;;;;;;12.40;3.80;;;;;;;13.45;90.39;101091.72;172021;28;864;-66
2022/06/20 00:08:49;;;;;;;12.38;3.83;;;;;;;13.37;91.35;101095.56;172016;28;923;-66
2022/06/20 00:08:54;;;;;;;11.41;3.81;;;;;;;13.30;91.39;101094.19;172037;28;1219;-66
2022/06/20 00:09:00;;;;;;;11.13;3.73;;;;;;;13.29;90.97;101089.88;172008;28;955;-66
2022/06/20 00:09:06;;;;;;;11.20;3.44;;;;;;;13.36;90.96;101091.28;171977;28;935;-66
2022/06/20 00:09:12;;;;;;;11.90;3.30;;;;;;;13.39;91.09;101093.72;171956;28;1025;-66
2022/06/20 00:09:18;;;;;;;12.87;3.40;;;;;;;13.42;90.80;101095.34;171944;28;1381;-66
2022/06/20 00:09:23;;;;;;;12.73;3.43;;;;;;;13.46;90.72;101094.28;171956;28;898;-67
2022/06/20 00:09:29;;;;;;;13.30;3.38;;;;;;;13.50;90.57;101094.97;171977;28;864;-66
2022/06/20 00:09:34;;;;;;;13.30;3.40;;;;;;;13.52;90.39;101101.00;171988;28;1081;-66
2022/06/20 00:09:41;;;;;;;12.93;3.40;;;;;;;13.54;90.44;101091.28;172005;28;856;-66
2022/06/20 00:09:47;;;;;;;11.78;3.28;;;;;;;13.51;90.07;101091.44;171999;28;1034;-66
2022/06/20 00:09:53;;;;;;;11.52;3.20;;;;;;;13.37;90.91;101098.19;172629;28;899;-66
2022/06/20 00:09:58;;;;;;;11.57;3.25;;;;;;;13.26;91.58;101092.63;172710;28;899;-66
2022/06/20 00:10:05;;;;;;;11.45;3.38;;;;;;;13.17;90.89;101099.19;172696;28;922;-66
2022/06/20 00:10:14;;;;;;;12.48;3.55;;;;;;;13.14;91.07;101094.94;173108;28;1579;-67
2022/06/20 00:10:23;;;;;;;13.73;3.66;;;;;;;13.20;91.52;101092.94;173337;28;1070;-67
2022/06/20 00:10:30;;;;;;;14.16;3.66;;;;;;;13.20;91.66;101091.16;173395;28;1059;-66
2022/06/20 00:10:36;;;;;;;13.64;3.48;;;;;;;13.27;91.51;101094.31;173373;28;903;-66
2022/06/20 00:10:44;;;;;;;13.55;3.38;;;;;;;13.33;91.07;101104.53;173368;28;1047;-66
2022/06/20 00:10:51;;;;;;;13.25;3.27;;;;;;;13.38;90.72;101089.41;173342;28;1003;-66
2022/06/20 00:10:57;;;;;;;13.27;3.33;;;;;;;13.39;91.16;101098.94;173372;28;913;-66
2022/06/20 00:11:03;;;;;;;13.35;3.33;;;;;;;13.43;90.56;101097.03;173354;28;1005;-66
2022/06/20 00:11:19;;;;;;;13.30;3.33;;;;;;;13.52;90.40;101101.00;173357;28;930;-66
2022/06/20 00:11:36;;;;;;;12.00;3.40;;;;;;;13.54;90.19;101096.53;173372;28;1257;-66
2022/06/20 00:11:49;;;;;;;14.21;3.67;;;;;;;13.57;89.52;101091.13;172591;28;1508;-66
2022/06/20 00:11:54;;;;;;;15.34;3.71;;;;;;;13.60;89.76;101096.22;172685;28;1247;-66
2022/06/20 00:12:00;;;;;;;14.15;3.67;;;;;;;13.60;89.85;101096.22;171933;28;958;-66
2022/06/20 00:12:06;;;;;;;13.13;3.70;;;;;;;13.61;89.53;101092.66;172016;28;899;-66
2022/06/20 00:12:21;;;;;;;12.85;3.55;;;;;;;13.63;89.43;101101.31;172004;28;1022;-66
2022/06/20 00:12:26;;;;;;;12.59;3.56;;;;;;;13.64;89.52;101092.50;171924;28;1424;-66
2022/06/20 00:12:32;;;;;;;14.02;3.63;;;;;;;13.65;89.10;101094.19;172010;28;1029;-66
2022/06/20 00:12:38;;;;;;;14.33;3.70;;;;;;;13.64;89.24;101097.75;172030;28;963;-66
2022/06/20 00:12:44;;;;;;;14.87;3.83;;;;;;;13.64;89.26;101095.13;172004;28;1030;-66
2022/06/20 00:12:52;;;;;;;14.24;3.70;;;;;;;13.66;89.34;101095.06;171882;28;1100;-66
2022/06/20 00:13:01;;;;;;;13.34;3.58;;;;;;;13.67;89.35;101095.88;172019;28;995;-66
2022/06/20 00:13:18;;;;;;;11.18;3.44;;;;;;;13.69;89.54;101100.13;171987;28;1162;-66
2022/06/20 00:13:34;;;;;;;9.49;3.30;;;;;;;13.71;89.00;101100.03;171969;28;1222;-66
2022/06/20 00:13:45;;;;;;;10.61;3.45;;;;;;;13.70;89.24;101093.09;172236;28;1244;-67
2022/06/20 00:13:54;;;;;;;11.58;3.56;;;;;;;13.69;88.81;101099.28;172565;28;1332;-66
2022/06/20 00:14:00;;;;;;;12.69;3.39;;;;;;;13.67;88.85;101095.88;173104;28;1221;-67
2022/06/20 00:14:06;;;;;;;12.27;3.30;;;;;;;13.60;89.60;101097.97;173354;28;860;-66
2022/06/20 00:14:16;;;;;;;13.93;3.40;;;;;;;13.47;89.69;101105.59;173356;28;902;-66
2022/06/20 00:14:21;;;;;;;14.73;3.45;;;;;;;13.39;90.06;101104.19;173372;28;1238;-66
2022/06/20 00:14:27;;;;;;;13.95;3.53;;;;;;;13.34;90.89;101100.97;172797;28;1034;-66
2022/06/20 00:14:32;;;;;;;13.93;3.63;;;;;;;13.34;90.34;101095.72;172712;28;1085;-66
2022/06/20 00:14:37;;;;;;;12.73;3.60;;;;;;;13.38;90.23;101097.25;172716;28;1030;-66
2022/06/20 00:14:44;;;;;;;11.23;3.53;;;;;;;13.43;90.22;101101.41;172706;28;911;-66
2022/06/20 00:15:05;;;;;;;11.37;3.50;;;;;;;13.43;90.08;101104.91;172747;28;1133;-66
2022/06/20 00:15:35;;;;;;;11.80;3.47;;;;;;;13.24;90.87;101105.00;172666;28;1251;-67
2022/06/20 00:15:41;;;;;;;11.88;3.59;;;;;;;13.03;91.99;101102.47;172661;28;1243;-66
2022/06/20 00:15:49;;;;;;;10.43;3.42;;;;;;;13.04;92.34;101108.56;172736;28;868;-66
2022/06/20 00:16:00;;;;;;;10.58;3.43;;;;;;;13.14;91.99;101104.59;172739;28;976;-66
2022/06/20 00:16:05;;;;;;;11.46;3.46;;;;;;;13.25;91.78;101106.69;172677;28;1248;-66
2022/06/20 00:16:19;;;;;;;11.60;3.40;;;;;;;13.35;91.21;101107.91;172714;28;851;-66
2022/06/20 00:16:24;;;;;;;12.06;3.41;;;;;;;13.38;91.28;101113.00;172569;28;1484;-66
2022/06/20 00:16:33;;;;;;;12.20;3.40;;;;;;;13.42;90.80;101105.84;172677;28;1112;-67
2022/06/20 00:16:40;;;;;;;13.03;3.53;;;;;;;13.45;90.73;101116.16;172631;28;1166;-66
2022/06/20 00:16:47;;;;;;;14.47;3.77;;;;;;;13.47;90.45;101109.06;172689;28;899;-66
2022/06/20 00:16:52;;;;;;;14.57;4.00;;;;;;;13.50;90.40;101113.34;172611;28;1361;-66
2022/06/20 00:16:57;;;;;;;14.52;3.95;;;;;;;13.51;90.26;101113.25;172718;28;1053;-66
2022/06/20 00:17:11;;;;;;;14.67;4.00;;;;;;;13.50;90.38;101110.72;172667;28;867;-66
2022/06/20 00:17:17;;;;;;;13.55;3.99;;;;;;;13.37;91.12;101108.69;172651;28;1230;-66
2022/06/20 00:17:23;;;;;;;12.57;3.73;;;;;;;13.36;90.86;101109.63;171891;28;1386;-66
2022/06/20 00:17:28;;;;;;;12.23;3.77;;;;;;;13.38;90.69;101110.38;171996;28;1129;-67
2022/06/20 00:17:34;;;;;;;12.30;3.63;;;;;;;13.43;90.29;101111.91;172000;28;749;-66
2022/06/20 00:17:39;;;;;;;12.87;3.47;;;;;;;13.45;90.68;101113.53;172005;28;916;-66
2022/06/20 00:17:44;;;;;;;12.25;3.50;;;;;;;13.47;90.34;101116.06;171985;28;943;-66
2022/06/20 00:17:51;;;;;;;13.60;3.67;;;;;;;13.47;90.47;101118.69;172001;28;1054;-66
2022/06/20 00:17:58;;;;;;;14.48;3.68;;;;;;;13.48;90.21;101117.78;171983;28;990;-66
2022/06/20 00:18:07;;;;;;;16.30;3.90;;;;;;;13.51;90.06;101112.41;172016;28;1074;-66
2022/06/20 00:18:12;;;;;;;15.23;3.85;;;;;;;13.53;89.94;101113.19;171964;28;1058;-66
2022/06/20 00:18:18;;;;;;;15.82;3.85;;;;;;;13.55;89.75;101118.34;171990;28;903;-66
2022/06/20 00:18:24;;;;;;;14.30;3.60;;;;;;;13.57;89.76;101116.47;172535;28;939;-66
2022/06/20 00:18:31;;;;;;;12.63;3.47;;;;;;;13.56;90.07;101118.28;172716;28;942;-66
2022/06/20 00:18:36;;;;;;;11.85;3.42;;;;;;;13.57;89.97;101114.72;172661;28;990;-66
2022/06/20 00:18:42;;;;;;;12.50;3.45;;;;;;;13.57;89.90;101117.34;172652;28;844;-66
2022/06/20 00:18:49;;;;;;;13.07;3.40;;;;;;;13.59;89.96;101114.66;171931;28;1313;-66
2022/06/20 00:18:54;;;;;;;12.66;3.44;;;;;;;13.59;89.76;101118.09;171981;28;1042;-66
2022/06/20 00:19:00;;;;;;;12.07;3.30;;;;;;;13.60;89.49;101122.44;172031;28;1026;-66
2022/06/20 00:19:06;;;;;;;12.45;3.47;;;;;;;13.61;89.57;101112.78;171981;28;903;-66
2022/06/20 00:19:13;;;;;;;11.88;3.50;;;;;;;13.60;89.71;101111.94;171998;28;864;-66
2022/06/20 00:19:18;;;;;;;12.13;3.67;;;;;;;13.62;89.75;101117.94;171994;28;1069;-66
2022/06/20 00:19:24;;;;;;;13.63;3.77;;;;;;;13.62;89.68;101114.50;172645;28;910;-66
2022/06/20 00:19:29;;;;;;;13.95;3.80;;;;;;;13.62;89.59;101115.31;172692;28;982;-66
2022/06/20 00:19:34;;;;;;;14.33;3.77;;;;;;;13.62;89.42;101120.56;172636;28;911;-66
2022/06/20 00:19:42;;;;;;;14.03;3.73;;;;;;;13.62;89.28;101119.75;171905;28;986;-66
2022/06/20 00:19:48;;;;;;;13.47;3.63;;;;;;;13.62;89.24;101117.94;171967;28;1082;-66
2022/06/20 00:19:54;;;;;;;12.77;3.53;;;;;;;13.62;89.51;101119.75;172003;28;1054;-66
2022/06/20 00:19:59;;;;;;;13.00;3.60;;;;;;;13.61;89.64;101116.25;172030;28;1037;-66
2022/06/20 00:20:06;;;;;;;13.10;3.60;;;;;;;13.60;89.52;101113.72;172002;28;860;-66
2022/06/20 00:20:13;;;;;;;13.14;3.68;;;;;;;13.58;89.30;101119.03;172019;28;895;-66
2022/06/20 00:20:19;;;;;;;14.63;3.73;;;;;;;13.58;89.62;101111.16;171979;28;1078;-66
2022/06/20 00:20:26;;;;;;;14.37;3.73;;;;;;;13.59;89.54;101114.66;172022;28;896;-66
2022/06/20 00:20:32;;;;;;;14.77;3.70;;;;;;;13.61;89.53;101123.28;171927;28;1177;-66
2022/06/20 00:20:38;;;;;;;17.00;3.72;;;;;;;13.62;89.52;101120.56;171221;28;1297;-66
2022/06/20 00:20:43;;;;;;;17.25;3.70;;;;;;;13.62;89.30;101120.56;171322;28;994;-66
2022/06/20 00:20:49;;;;;;;17.70;3.72;;;;;;;13.63;89.61;101121.44;171933;28;1050;-66
2022/06/20 00:20:55;;;;;;;18.43;3.87;;;;;;;13.63;89.68;101121.44;171951;28;1026;-66
2022/06/20 00:21:00;;;;;;;18.17;4.00;;;;;;;13.64;89.71;101123.97;172030;28;887;-66
2022/06/20 00:21:11;;;;;;;16.50;4.00;;;;;;;13.64;89.52;101123.97;171978;28;987;-66
2022/06/20 00:21:21;;;;;;;16.79;4.01;;;;;;;13.65;89.15;101120.41;171975;28;1252;-66
2022/06/20 00:21:27;;;;;;;14.16;3.71;;;;;;;13.67;89.27;101129.97;171991;28;1154;-66
2022/06/20 00:21:32;;;;;;;15.57;3.70;;;;;;;13.66;89.25;101126.53;172016;28;912;-66
2022/06/20 00:21:39;;;;;;;14.33;3.57;;;;;;;13.65;89.26;101130.91;172140;28;923;-66
2022/06/20 00:21:45;;;;;;;14.10;3.50;;;;;;;13.63;89.38;101127.53;172693;28;1065;-66
2022/06/20 00:21:50;;;;;;;14.40;3.60;;;;;;;13.64;88.98;101134.47;172650;28;761;-66
2022/06/20 00:21:56;;;;;;;15.20;3.63;;;;;;;13.64;89.09;101129.22;172685;28;895;-66
2022/06/20 00:22:02;;;;;;;14.13;3.53;;;;;;;13.65;89.16;101130.91;171914;28;1443;-66
2022/06/20 00:22:07;;;;;;;13.32;3.50;;;;;;;13.62;89.39;101131.06;171982;28;1081;-66
2022/06/20 00:22:12;;;;;;;13.17;3.47;;;;;;;13.56;89.42;101131.38;172009;28;785;-66
2022/06/20 00:22:18;;;;;;;12.27;3.45;;;;;;;13.46;90.07;101130.13;171996;28;1002;-65
2022/06/20 00:22:23;;;;;;;12.83;3.53;;;;;;;13.31;90.29;101127.31;172029;28;859;-65
2022/06/20 00:22:29;;;;;;;11.52;3.67;;;;;;;13.19;90.78;101128.78;172040;28;864;-66
2022/06/20 00:22:34;;;;;;;11.40;3.80;;;;;;;13.11;91.63;101131.78;172079;28;852;-65
2022/06/20 00:22:40;;;;;;;11.43;3.80;;;;;;;13.05;91.82;101132.09;172670;28;963;-66
2022/06/20 00:22:45;;;;;;;11.48;3.90;;;;;;;12.97;90.83;101134.22;172652;28;931;-66
2022/06/20 00:22:51;;;;;;;11.63;3.83;;;;;;;12.95;90.79;101136.06;172669;28;1092;-66
2022/06/20 00:22:57;;;;;;;11.63;3.80;;;;;;;12.93;91.04;101137.91;172705;28;978;-66
2022/06/20 00:23:02;;;;;;;12.32;3.70;;;;;;;12.92;91.45;101137.06;172671;28;1085;-66
2022/06/20 00:23:09;;;;;;;12.30;3.70;;;;;;;12.91;90.93;101134.50;172649;28;981;-66
2022/06/20 00:23:14;;;;;;;12.38;3.70;;;;;;;12.92;91.08;101141.44;172637;28;1077;-66
2022/06/20 00:23:20;;;;;;;12.38;3.78;;;;;;;12.92;91.62;101136.19;172662;28;872;-66
2022/06/20 00:23:25;;;;;;;13.03;3.73;;;;;;;12.91;91.69;101142.38;171916;28;1017;-66
2022/06/20 00:23:31;;;;;;;11.50;3.60;;;;;;;12.91;91.39;101139.75;172018;28;931;-66
2022/06/20 00:23:36;;;;;;;11.15;3.45;;;;;;;12.91;91.08;101143.22;171997;28;930;-66
2022/06/20 00:23:41;;;;;;;11.53;3.40;;;;;;;12.93;91.25;101143.16;171885;28;1914;-66
2022/06/20 00:23:47;;;;;;;11.27;3.47;;;;;;;12.96;91.16;101148.22;172012;28;832;-66
2022/06/20 00:23:53;;;;;;;10.20;3.50;;;;;;;12.99;91.34;101137.59;171934;28;978;-66
2022/06/20 00:23:58;;;;;;;10.95;3.50;;;;;;;13.04;91.52;101146.13;172120;28;855;-66
2022/06/20 00:24:05;;;;;;;12.67;3.77;;;;;;;13.11;91.05;101152.72;172594;28;1408;-66
2022/06/20 00:24:10;;;;;;;13.64;3.84;;;;;;;13.16;91.25;101149.03;172664;28;1086;-66
2022/06/20 00:24:15;;;;;;;14.23;3.90;;;;;;;13.18;91.21;101148.06;171913;28;1472;-66
2022/06/20 00:24:21;;;;;;;16.42;4.00;;;;;;;13.21;90.58;101150.50;171966;28;848;-66
2022/06/20 00:24:26;;;;;;;16.77;4.00;;;;;;;13.24;90.59;101141.69;171989;28;1245;-67
2022/06/20 00:24:32;;;;;;;17.60;4.07;;;;;;;13.26;90.37;101147.69;171905;28;864;-66
2022/06/20 00:24:38;;;;;;;17.37;4.10;;;;;;;13.26;90.44;101150.28;171989;28;892;-66
2022/06/20 00:24:43;;;;;;;17.02;4.13;;;;;;;13.24;90.40;101152.16;171997;28;1140;-66
2022/06/20 00:24:49;;;;;;;16.25;4.10;;;;;;;13.18;89.87;101149.81;172018;28;1087;-66
2022/06/20 00:24:54;;;;;;;15.80;4.03;;;;;;;13.13;90.63;101150.91;171987;28;848;-66
2022/06/20 00:25:00;;;;;;;14.20;4.10;;;;;;;13.11;90.60;101152.72;172035;28;1051;-67
2022/06/20 00:25:05;;;;;;;14.00;4.10;;;;;;;13.08;91.09;101158.16;172000;28;1286;-67
2022/06/20 00:25:12;;;;;;;14.60;4.07;;;;;;;13.07;91.03;101156.44;171974;28;998;-66
2022/06/20 00:25:19;;;;;;;13.90;4.00;;;;;;;13.04;90.71;101153.97;172053;28;888;-66
2022/06/20 00:25:25;;;;;;;13.90;3.90;;;;;;;12.98;90.34;101156.88;172428;28;908;-66
2022/06/20 00:25:30;;;;;;;14.16;3.76;;;;;;;12.95;90.40;101159.63;171956;28;1150;-66
2022/06/20 00:25:38;;;;;;;14.97;3.77;;;;;;;12.93;90.46;101158.88;171970;28;1038;-66
2022/06/20 00:25:44;;;;;;;13.57;3.67;;;;;;;12.92;91.37;101157.16;172002;28;959;-66
2022/06/20 00:25:49;;;;;;;13.30;3.60;;;;;;;12.91;91.54;101155.47;171935;28;962;-66
2022/06/20 00:25:55;;;;;;;12.95;3.58;;;;;;;12.92;91.42;101163.25;171958;28;961;-66
2022/06/20 00:26:00;;;;;;;12.80;3.57;;;;;;;12.94;91.16;101160.56;171915;28;888;-66
2022/06/20 00:26:08;;;;;;;12.65;3.45;;;;;;;13.00;90.97;101170.72;171332;28;951;-67
2022/06/20 00:26:15;;;;;;;12.77;3.50;;;;;;;13.02;90.99;101166.28;171607;28;876;-66
2022/06/20 00:26:21;;;;;;;13.00;3.60;;;;;;;13.10;90.89;101166.75;171978;28;982;-66
2022/06/20 00:26:27;;;;;;;13.40;3.80;;;;;;;13.11;90.87;101165.00;172008;28;848;-66
2022/06/20 00:26:33;;;;;;;13.20;3.88;;;;;;;13.09;91.31;101166.84;172512;28;855;-66
2022/06/20 00:26:39;;;;;;;11.83;3.80;;;;;;;13.08;91.01;101163.38;172547;28;1030;-66
2022/06/20 00:26:44;;;;;;;11.97;3.73;;;;;;;13.11;90.99;101168.44;172607;28;868;-66
2022/06/20 00:26:50;;;;;;;12.43;3.60;;;;;;;13.14;90.61;101168.31;172685;28;1129;-66
2022/06/20 00:26:56;;;;;;;12.70;3.50;;;;;;;13.18;90.74;101170.78;172688;28;1006;-66
2022/06/20 00:27:06;;;;;;;12.37;3.50;;;;;;;13.21;90.70;101173.28;172708;28;942;-66
2022/06/20 00:27:12;;;;;;;14.32;3.64;;;;;;;13.28;90.16;101172.06;172486;28;1309;-67
2022/06/20 00:27:17;;;;;;;14.87;3.77;;;;;;;13.32;90.01;101170.97;172665;28;856;-66
2022/06/20 00:27:22;;;;;;;13.85;3.75;;;;;;;13.34;90.17;101173.53;172667;28;1006;-66
2022/06/20 00:27:28;;;;;;;13.87;3.90;;;;;;;13.37;89.99;101174.22;172860;28;1101;-66
2022/06/20 00:27:33;;;;;;;13.63;3.80;;;;;;;13.37;89.79;101174.22;173348;28;851;-67
2022/06/20 00:27:39;;;;;;;11.65;3.70;;;;;;;13.38;89.63;101175.91;173361;28;711;-66
2022/06/20 00:27:45;;;;;;;12.02;3.67;;;;;;;13.38;90.15;101172.44;173325;28;1033;-66
2022/06/20 00:27:53;;;;;;;11.93;3.60;;;;;;;13.40;89.78;101175.81;173318;28;861;-66
2022/06/20 00:27:59;;;;;;;11.74;3.44;;;;;;;13.46;89.75;101177.31;173371;28;2001;-67
2022/06/20 00:28:05;;;;;;;11.93;3.30;;;;;;;13.48;89.19;101175.47;173341;28;895;-65
2022/06/20 00:28:14;;;;;;;12.12;3.30;;;;;;;13.52;88.94;101172.63;173342;28;1018;-66
2022/06/20 00:28:19;;;;;;;10.97;3.28;;;;;;;13.56;88.83;101175.09;173310;28;979;-66
2022/06/20 00:28:25;;;;;;;11.07;3.25;;;;;;;13.56;88.48;101173.34;173324;28;970;-66
2022/06/20 00:28:31;;;;;;;11.30;3.30;;;;;;;13.55;88.63;101179.50;173366;28;908;-66
2022/06/20 00:28:37;;;;;;;11.25;3.53;;;;;;;13.53;88.24;101176.09;173365;28;970;-66
2022/06/20 00:28:44;;;;;;;12.20;3.58;;;;;;;13.49;88.22;101180.63;173115;28;979;-66
2022/06/20 00:28:49;;;;;;;14.02;3.70;;;;;;;13.49;88.50;101177.19;172711;28;942;-66
2022/06/20 00:28:56;;;;;;;14.40;3.80;;;;;;;13.51;88.42;101175.31;172704;28;915;-66
2022/06/20 00:29:07;;;;;;;13.90;3.70;;;;;;;13.54;88.65;101175.19;172784;28;914;-66
2022/06/20 00:29:13;;;;;;;13.69;3.41;;;;;;;13.55;88.19;101171.63;172749;28;1824;-66
2022/06/20 00:29:18;;;;;;;13.13;3.38;;;;;;;13.56;88.14;101175.97;172702;28;1038;-66
2022/06/20 00:29:24;;;;;;;12.90;3.40;;;;;;;13.56;88.35;101178.59;172687;28;899;-66
2022/06/20 00:29:30;;;;;;;14.68;3.53;;;;;;;13.58;88.15;101175.91;172757;28;927;-66
2022/06/20 00:29:41;;;;;;;14.97;3.60;;;;;;;13.60;88.18;101179.28;172690;28;923;-66
2022/06/20 00:29:48;;;;;;;14.29;3.60;;;;;;;13.60;88.58;101180.13;172702;28;1239;-66
2022/06/20 00:29:53;;;;;;;13.48;3.50;;;;;;;13.62;88.10;101180.06;172715;28;973;-66
2022/06/20 00:30:00;;;;;;;13.03;3.43;;;;;;;13.61;88.58;101176.56;172639;28;1018;-66
2022/06/20 00:30:07;;;;;;;13.37;3.50;;;;;;;13.61;88.54;101176.56;172726;28;876;-66
2022/06/20 00:30:17;;;;;;;13.02;3.50;;;;;;;13.63;88.51;101171.25;172690;28;1133;-66
2022/06/20 00:30:23;;;;;;;13.57;3.47;;;;;;;13.65;88.22;101177.25;172677;28;1149;-66
2022/06/20 00:30:29;;;;;;;12.67;3.37;;;;;;;13.65;88.11;101178.13;172771;28;974;-66
2022/06/20 00:30:35;;;;;;;11.33;3.20;;;;;;;13.64;88.17;101175.56;172726;28;852;-66
2022/06/20 00:30:41;;;;;;;11.12;3.24;;;;;;;13.64;88.17;101176.44;172704;28;1115;-66
2022/06/20 00:30:47;;;;;;;10.70;3.30;;;;;;;13.63;88.33;101174.75;172732;28;887;-66
2022/06/20 00:30:52;;;;;;;10.88;3.42;;;;;;;13.63;88.49;101172.13;172702;28;907;-66
2022/06/20 00:30:59;;;;;;;10.93;3.50;;;;;;;13.62;88.31;101180.88;172752;28;958;-66
2022/06/20 00:31:05;;;;;;;11.00;3.50;;;;;;;13.63;88.63;101174.75;172698;28;970;-66
2022/06/20 00:31:12;;;;;;;11.56;3.46;;;;;;;13.61;88.29;101176.56;172722;28;974;-66
2022/06/20 00:31:17;;;;;;;12.10;3.40;;;;;;;13.59;88.20;101181.03;172741;28;931;-66
2022/06/20 00:31:23;;;;;;;12.00;3.33;;;;;;;13.58;88.34;101176.72;172588;28;857;-66
2022/06/20 00:31:29;;;;;;;11.27;3.45;;;;;;;13.57;88.41;101169.78;172692;28;974;-66
2022/06/20 00:31:35;;;;;;;11.32;3.50;;;;;;;13.59;88.53;101174.97;172693;28;902;-66
2022/06/20 00:31:40;;;;;;;11.27;3.50;;;;;;;13.59;88.67;101173.16;172669;28;950;-66
2022/06/20 00:31:46;;;;;;;10.83;3.60;;;;;;;13.61;88.63;101171.31;172664;28;1056;-66
2022/06/20 00:31:51;;;;;;;10.30;3.70;;;;;;;13.62;88.37;101172.19;172687;28;851;-66
2022/06/20 00:31:57;;;;;;;10.40;3.67;;;;;;;13.63;88.78;101171.25;172679;28;871;-66
2022/06/20 00:32:05;;;;;;;11.25;3.63;;;;;;;13.64;88.64;101168.56;172660;28;1089;-66
2022/06/20 00:32:11;;;;;;;12.00;3.80;;;;;;;13.65;88.68;101172.88;172638;28;981;-66
2022/06/20 00:32:17;;;;;;;11.40;3.60;;;;;;;13.65;88.43;101178.13;172687;28;883;-66
2022/06/20 00:32:22;;;;;;;11.48;3.42;;;;;;;13.65;88.50;101172.88;172669;28;868;-66
2022/06/20 00:32:27;;;;;;;12.30;3.47;;;;;;;13.66;88.70;101163.25;172692;28;919;-66
2022/06/20 00:32:33;;;;;;;12.93;3.50;;;;;;;13.67;88.48;101174.56;172683;28;1034;-66